Time;durP1;ratioP1;P1;durP2;ratioP2;P2;SDS_P1;SDS_P2;PMS_P1;PMS_P2;Temp;Humidity;BMP_temperature;BMP_pressure;BME280_temperature;BME280_humidity;BME280_pressure;Samples;Min_cycle;Max_cycle;Signal;HPM_P1;HPM_P2
2022/05/17 00:00:51;;;;;;;0.10;0.10;;;;;;;22.78;45.89;101642.88;5130436;27;20074;-31
2022/05/17 00:03:17;;;;;;;0.10;0.10;;;;;;;22.78;45.80;101637.31;5132827;27;20062;-30
2022/05/17 00:05:44;;;;;;;0.10;0.10;;;;;;;22.77;45.71;101639.25;5131338;27;20541;-31
2022/05/17 00:08:10;;;;;;;0.10;0.10;;;;;;;22.77;45.76;101636.47;5129977;27;20459;-32
2022/05/17 00:10:36;;;;;;;0.10;0.10;;;;;;;22.77;45.85;101639.25;5132151;27;20036;-31
2022/05/17 00:13:03;;;;;;;0.10;0.10;;;;;;;22.77;45.75;101630.09;5132108;27;20698;-32
2022/05/17 00:15:29;;;;;;;0.10;0.10;;;;;;;22.78;45.82;101637.31;5131618;27;20085;-33
2022/05/17 00:17:55;;;;;;;0.10;0.10;;;;;;;22.76;45.71;101626.50;5130110;28;20115;-32
2022/05/17 00:20:22;;;;;;;0.10;0.10;;;;;;;22.77;45.83;101627.31;5130500;27;20439;-31
2022/05/17 00:22:48;;;;;;;0.10;0.10;;;;;;;22.77;45.66;101625.38;5131439;27;20066;-32
2022/05/17 00:25:15;;;;;;;0.10;0.10;;;;;;;22.76;45.77;101622.91;5112319;28;20047;-31
2022/05/17 00:27:41;;;;;;;0.10;0.10;;;;;;;22.76;45.98;101623.72;5130604;28;20047;-30
2022/05/17 00:30:07;;;;;;;0.10;0.10;;;;;;;22.76;45.74;101614.56;5129981;27;20039;-30
2022/05/17 00:32:33;;;;;;;0.10;0.10;;;;;;;22.76;45.81;101620.94;5132097;28;20121;-31
2022/05/17 00:34:59;;;;;;;0.10;0.10;;;;;;;22.75;45.83;101622.06;5131113;27;20047;-30
2022/05/17 00:37:25;;;;;;;0.10;0.10;;;;;;;22.75;45.76;101627.63;5131153;27;20054;-30
2022/05/17 00:39:51;;;;;;;0.10;0.10;;;;;;;22.75;45.83;101624.84;5130223;27;20046;-30
2022/05/17 00:42:17;;;;;;;0.10;0.10;;;;;;;22.75;45.89;101618.44;5130585;28;20146;-30
2022/05/17 00:44:43;;;;;;;0.10;0.10;;;;;;;22.75;45.77;101619.28;5131921;27;20062;-30
2022/05/17 00:49:52;;;;;;;0.10;0.10;;;;;;;22.74;45.79;101623.16;5155137;27;20117;-30
2022/05/17 00:52:22;;;;;;;0.10;0.10;;;;;;;22.74;45.71;101623.16;5160987;27;20084;-29
2022/05/17 00:54:49;;;;;;;0.10;0.10;;;;;;;22.75;45.67;101626.75;5162051;27;20454;-29
2022/05/17 00:57:29;;;;;;;0.10;0.10;;;;;;;22.74;45.89;101625.13;5158758;27;20121;-29
2022/05/17 00:59:58;;;;;;;0.10;0.10;;;;;;;22.74;45.84;101623.16;5157577;27;20089;-29
2022/05/17 01:02:24;;;;;;;0.10;0.10;;;;;;;22.74;45.82;101625.13;5158016;27;20077;-31
2022/05/17 01:04:50;;;;;;;0.10;0.10;;;;;;;22.73;45.70;101629.03;5136029;27;20074;-31
2022/05/17 01:07:19;;;;;;;0.10;0.10;;;;;;;22.74;45.74;101631.50;5159930;27;20100;-32
2022/05/17 01:09:44;;;;;;;0.10;0.10;;;;;;;22.73;45.76;101627.06;5159348;27;20118;-31
2022/05/17 01:12:10;;;;;;;0.10;0.10;;;;;;;22.73;45.85;101620.69;5159223;27;20043;-31
2022/05/17 01:15:08;;;;;;;0.10;0.10;;;;;;;22.73;45.78;101620.69;5161908;27;20555;-31
2022/05/17 01:17:25;;;;;;;0.10;0.10;;;;;;;22.72;45.78;101619.88;5139545;27;20131;-31
2022/05/17 01:19:51;;;;;;;0.10;0.10;;;;;;;22.73;45.79;101629.84;5151974;27;20078;-31
2022/05/17 01:22:17;;;;;;;0.10;0.10;;;;;;;22.73;45.82;101626.25;5138344;27;20336;-31
2022/05/17 01:24:43;;;;;;;0.10;0.10;;;;;;;22.73;45.78;101618.75;5154901;27;20097;-32
2022/05/17 01:27:13;;;;;;;0.10;0.10;;;;;;;22.72;45.64;101619.88;5154493;27;20082;-32
2022/05/17 01:29:42;;;;;;;0.10;0.10;;;;;;;22.72;45.80;101617.09;5152215;27;20069;-30
2022/05/17 01:32:09;;;;;;;0.10;0.10;;;;;;;22.71;45.78;101618.22;5159125;27;20070;-32
2022/05/17 01:34:36;;;;;;;0.10;0.10;;;;;;;22.70;45.81;101613.75;5155508;27;20485;-31
2022/05/17 01:37:02;;;;;;;0.10;0.10;;;;;;;22.72;45.79;101611.53;5155633;27;20107;-32
2022/05/17 01:39:28;;;;;;;0.10;0.10;;;;;;;22.71;45.81;101612.66;5154891;27;20078;-32
2022/05/17 01:41:54;;;;;;;0.10;0.10;;;;;;;22.71;45.63;101609.88;5160594;27;20070;-31
2022/05/17 01:44:20;;;;;;;0.10;0.10;;;;;;;22.71;45.69;101614.56;5166384;27;20087;-31
2022/05/17 01:46:46;;;;;;;0.10;0.10;;;;;;;22.71;45.70;101614.56;5165989;27;20042;-31
2022/05/17 01:49:11;;;;;;;0.10;0.10;;;;;;;22.70;45.84;101610.97;5164120;27;20126;-31
2022/05/17 01:51:37;;;;;;;0.10;0.10;;;;;;;22.70;45.76;101599.88;5164229;27;20042;-32
2022/05/17 01:54:03;;;;;;;0.10;0.10;;;;;;;22.71;45.85;101614.56;5164661;27;20042;-31
2022/05/17 01:56:28;;;;;;;0.10;0.10;;;;;;;22.69;46.19;101603.78;5166338;27;20121;-31
2022/05/17 01:58:55;;;;;;;0.10;0.10;;;;;;;22.69;45.80;101606.53;5162385;27;20042;-31
2022/05/17 02:01:20;;;;;;;0.10;0.10;;;;;;;22.70;45.85;101605.41;5150315;27;20129;-32
2022/05/17 02:03:46;;;;;;;0.10;0.10;;;;;;;22.70;45.61;101597.09;5150403;27;20094;-31
2022/05/17 02:06:11;;;;;;;0.10;0.10;;;;;;;22.70;45.81;101607.38;5150739;27;20401;-31
2022/05/17 02:08:37;;;;;;;0.10;0.10;;;;;;;22.69;45.75;101614.06;5150992;27;20050;-31
2022/05/17 02:11:03;;;;;;;0.10;0.10;;;;;;;22.70;45.77;101607.38;5152310;27;20039;-30
2022/05/17 02:13:29;;;;;;;0.10;0.10;;;;;;;22.69;45.86;101608.50;5151973;27;20122;-32
2022/05/17 02:15:55;;;;;;;0.10;0.10;;;;;;;22.69;45.78;101617.66;5150038;27;20057;-32
2022/05/17 02:18:21;;;;;;;0.10;0.10;;;;;;;22.69;45.71;101616.81;5146849;27;20095;-30
2022/05/17 02:20:47;;;;;;;0.10;0.10;;;;;;;22.69;45.90;101625.97;5150123;27;20043;-30
2022/05/17 02:23:13;;;;;;;0.10;0.10;;;;;;;22.70;45.82;101624.03;5147888;27;20056;-32
2022/05/17 02:25:38;;;;;;;0.10;0.10;;;;;;;22.68;45.77;101627.09;5152676;27;20049;-31
2022/05/17 02:28:06;;;;;;;0.10;0.10;;;;;;;22.68;45.83;101629.88;5150311;27;20366;-31
2022/05/17 02:30:31;;;;;;;0.10;0.10;;;;;;;22.68;45.71;101634.59;5152420;27;20131;-30
2022/05/17 02:32:57;;;;;;;0.10;0.10;;;;;;;22.68;45.74;101635.44;5151691;27;20059;-30
2022/05/17 02:35:23;;;;;;;0.10;0.10;;;;;;;22.68;45.74;101635.44;5151001;27;20035;-31
2022/05/17 02:37:49;;;;;;;0.10;0.10;;;;;;;22.69;45.81;101625.16;5129393;27;20046;-31
2022/05/17 02:40:15;;;;;;;0.10;0.10;;;;;;;22.68;45.74;101629.06;5151271;27;20049;-31
2022/05/17 02:42:40;;;;;;;0.10;0.10;;;;;;;22.67;45.86;101622.69;5150641;27;20046;-31
2022/05/17 02:45:07;;;;;;;0.10;0.10;;;;;;;22.68;45.71;101623.50;5148492;27;20496;-31
2022/05/17 02:47:33;;;;;;;0.10;0.10;;;;;;;22.68;45.76;101623.50;5150256;27;20515;-30
2022/05/17 02:49:59;;;;;;;0.10;0.10;;;;;;;22.67;45.80;101625.44;5145449;27;20078;-31
2022/05/17 02:52:25;;;;;;;0.10;0.10;;;;;;;22.68;45.65;101629.06;5150910;27;20074;-31
2022/05/17 02:54:50;;;;;;;0.10;0.10;;;;;;;22.67;45.75;101624.63;5150576;27;20074;-34
2022/05/17 02:57:16;;;;;;;0.10;0.10;;;;;;;22.66;45.76;101621.00;5150598;27;20050;-31
2022/05/17 02:59:42;;;;;;;0.10;0.10;;;;;;;22.67;45.74;101625.44;5150166;27;20054;-30
2022/05/17 03:02:07;;;;;;;0.10;0.10;;;;;;;22.66;45.46;101631.28;5150778;27;20046;-31
2022/05/17 03:04:33;;;;;;;0.10;0.10;;;;;;;22.66;45.77;101625.72;5151428;27;20445;-31
2022/05/17 03:06:59;;;;;;;0.25;0.22;;;;;;;22.66;45.81;101634.88;5150988;27;20051;-30
2022/05/17 03:09:24;;;;;;;0.10;0.10;;;;;;;22.66;45.73;101634.06;5150225;27;20049;-33
2022/05/17 03:11:50;;;;;;;0.10;0.10;;;;;;;22.66;45.71;101643.22;5132021;27;20046;-31
2022/05/17 03:14:18;;;;;;;0.10;0.10;;;;;;;22.66;45.78;101645.97;5150914;27;20125;-31
2022/05/17 03:16:44;;;;;;;0.10;0.10;;;;;;;22.65;45.66;101649.06;5150779;27;20085;-31
2022/05/17 03:19:10;;;;;;;0.10;0.10;;;;;;;22.66;45.73;101647.94;5149208;27;20456;-30
2022/05/17 03:21:36;;;;;;;0.10;0.10;;;;;;;22.66;45.50;101653.47;5149727;27;20493;-31
2022/05/17 03:24:03;;;;;;;0.10;0.10;;;;;;;22.65;45.81;101655.44;5130950;27;20050;-32
2022/05/17 03:26:29;;;;;;;0.10;0.10;;;;;;;22.66;45.98;101659.03;5151948;27;20502;-31
2022/05/17 03:28:58;;;;;;;0.10;0.10;;;;;;;22.65;45.71;101655.44;5148962;27;20078;-31
2022/05/17 03:31:25;;;;;;;0.10;0.10;;;;;;;22.64;45.74;101651.00;5132289;27;20164;-30
2022/05/17 03:33:50;;;;;;;0.13;0.10;;;;;;;22.65;45.79;101657.38;5150135;27;20099;-32
2022/05/17 03:36:16;;;;;;;0.10;0.10;;;;;;;22.64;45.74;101651.00;5151178;27;20054;-31
2022/05/17 03:38:42;;;;;;;0.10;0.10;;;;;;;22.64;45.78;101652.97;5147612;27;20085;-31
2022/05/17 03:41:07;;;;;;;0.10;0.10;;;;;;;22.64;45.81;101652.97;5150393;27;20039;-30
2022/05/17 03:43:33;;;;;;;0.10;0.10;;;;;;;22.64;45.75;101664.88;5149303;27;20035;-30
2022/05/17 03:45:59;;;;;;;0.10;0.10;;;;;;;22.64;45.72;101652.97;5147147;27;20042;-31
2022/05/17 03:48:26;;;;;;;0.10;0.10;;;;;;;22.65;45.81;101662.94;5146842;27;20046;-31
2022/05/17 03:50:52;;;;;;;0.10;0.10;;;;;;;22.64;45.73;101664.88;5151251;27;20485;-32
2022/05/17 03:53:17;;;;;;;0.10;0.10;;;;;;;22.63;45.74;101666.00;5150098;27;20745;-31
2022/05/17 03:55:44;;;;;;;0.10;0.10;;;;;;;22.63;45.66;101671.56;5149918;27;20049;-31
2022/05/17 03:58:09;;;;;;;0.20;0.20;;;;;;;22.63;45.75;101660.47;5147508;27;20606;-32
2022/05/17 04:00:35;;;;;;;0.10;0.10;;;;;;;22.63;45.70;101662.41;5149975;27;20138;-31
2022/05/17 04:03:02;;;;;;;0.10;0.10;;;;;;;22.63;45.77;101665.19;5150089;27;20053;-31
2022/05/17 04:05:28;;;;;;;0.10;0.10;;;;;;;22.61;45.72;101667.41;5150179;27;20317;-30
2022/05/17 04:07:53;;;;;;;0.10;0.10;;;;;;;22.62;45.78;101667.09;5148392;27;20489;-31
2022/05/17 04:10:19;;;;;;;0.10;0.10;;;;;;;22.62;45.68;101661.56;5148039;27;20047;-30
2022/05/17 04:12:45;;;;;;;0.10;0.10;;;;;;;22.63;45.71;101665.19;5148176;27;20098;-31
2022/05/17 04:15:18;;;;;;;0.10;0.10;;;;;;;22.63;45.74;101671.56;5131489;27;20152;-31
2022/05/17 04:17:44;;;;;;;0.10;0.10;;;;;;;22.63;45.69;101665.19;5149917;27;20053;-31
2022/05/17 04:20:14;;;;;;;0.10;0.10;;;;;;;22.62;45.76;101663.50;5149173;27;20084;-30
2022/05/17 04:22:44;;;;;;;0.10;0.10;;;;;;;22.62;45.76;101664.34;5148566;27;20306;-31
2022/05/17 04:25:10;;;;;;;0.10;0.10;;;;;;;22.62;45.76;101669.06;5131595;27;20129;-32
2022/05/17 04:27:35;;;;;;;0.10;0.10;;;;;;;22.62;45.65;101666.28;5148878;27;20074;-30
2022/05/17 04:30:01;;;;;;;0.20;0.20;;;;;;;22.62;45.72;101669.88;5147833;27;20073;-32
2022/05/17 04:32:27;;;;;;;0.10;0.10;;;;;;;22.63;45.70;101677.13;5149473;27;20420;-31
2022/05/17 04:34:52;;;;;;;0.10;0.10;;;;;;;22.61;45.69;101679.34;5146441;27;20100;-30
2022/05/17 04:37:18;;;;;;;0.10;0.10;;;;;;;22.62;45.72;101677.38;5147139;27;20058;-30
2022/05/17 04:39:44;;;;;;;0.10;0.10;;;;;;;22.62;45.74;101674.59;5146037;27;20740;-30
2022/05/17 04:42:09;;;;;;;0.10;0.10;;;;;;;22.62;45.72;101674.59;5148658;27;20042;-30
2022/05/17 04:44:35;;;;;;;0.10;0.10;;;;;;;22.61;45.68;101670.19;5148576;27;20077;-30
2022/05/17 04:47:01;;;;;;;0.10;0.10;;;;;;;22.61;45.64;101668.22;5148672;27;20510;-32
2022/05/17 04:49:26;;;;;;;0.10;0.10;;;;;;;22.61;45.69;101675.72;5143625;27;20123;-31
2022/05/17 04:51:53;;;;;;;0.10;0.10;;;;;;;22.60;45.72;101669.34;5147111;27;20049;-32
2022/05/17 04:54:19;;;;;;;0.10;0.10;;;;;;;22.61;45.69;101667.41;5148580;27;20070;-31
2022/05/17 04:56:44;;;;;;;0.10;0.10;;;;;;;22.59;45.73;101673.25;5149897;27;20061;-29
2022/05/17 04:59:10;;;;;;;0.10;0.10;;;;;;;22.60;45.79;101680.47;5146126;27;20046;-31
2022/05/17 05:01:36;;;;;;;0.10;0.10;;;;;;;22.61;45.79;101678.50;5149529;27;20054;-31
2022/05/17 05:04:02;;;;;;;0.10;0.10;;;;;;;22.60;45.63;101688.78;5148208;27;20475;-31
2022/05/17 05:06:28;;;;;;;0.10;0.10;;;;;;;22.61;45.70;101686.84;5148776;27;20067;-32
2022/05/17 05:08:54;;;;;;;0.10;0.10;;;;;;;22.60;45.81;101685.19;5145585;27;20046;-30
2022/05/17 05:11:19;;;;;;;0.10;0.10;;;;;;;22.60;45.78;101682.41;5150365;27;20086;-30
2022/05/17 05:13:45;;;;;;;0.10;0.10;;;;;;;22.59;45.68;101695.47;5144222;27;20046;-31
2022/05/17 05:16:13;;;;;;;0.10;0.10;;;;;;;22.61;45.77;101689.63;5144598;27;20043;-30
2022/05/17 05:18:38;;;;;;;0.00;0.00;;;;;;;22.60;45.71;101699.06;5141136;27;20057;-31
2022/05/17 05:21:06;;;;;;;0.10;0.10;;;;;;;22.58;46.12;101701.28;5140138;27;20043;-47
2022/05/17 05:23:31;;;;;;;0.00;0.00;;;;;;;22.25;49.24;101703.66;5141909;27;20126;-44
2022/05/17 05:25:58;;;;;;;0.10;0.10;;;;;;;22.37;48.50;101706.94;5143358;27;20045;-30
2022/05/17 05:28:24;;;;;;;0.10;0.10;;;;;;;22.49;47.98;101704.66;5141401;27;20528;-31
2022/05/17 05:30:50;;;;;;;0.10;0.10;;;;;;;22.57;47.45;101705.19;5143984;27;20090;-31
2022/05/17 05:33:15;;;;;;;0.10;0.10;;;;;;;22.60;47.34;101705.44;5143743;27;20648;-31
2022/05/17 05:35:41;;;;;;;0.10;0.10;;;;;;;22.62;47.01;101714.31;5142942;27;20431;-32
2022/05/17 05:38:07;;;;;;;0.10;0.10;;;;;;;22.64;46.99;101708.47;5144425;27;20050;-30
2022/05/17 05:40:32;;;;;;;0.10;0.10;;;;;;;22.64;46.94;101712.09;5146363;27;20046;-31
2022/05/17 05:42:58;;;;;;;0.10;0.10;;;;;;;22.56;47.78;101714.63;5145535;27;20087;-31
2022/05/17 05:45:24;;;;;;;0.10;0.10;;;;;;;22.67;47.08;101721.81;5138633;27;20035;-30
2022/05/17 05:47:50;;;;;;;0.10;0.10;;;;;;;22.71;47.06;101714.53;5139867;27;20134;-32
2022/05/17 05:50:16;;;;;;;0.10;0.10;;;;;;;22.69;46.87;101700.13;5142673;27;20157;-30
2022/05/17 05:52:41;;;;;;;0.10;0.10;;;;;;;22.70;46.77;101699.81;5139269;27;20432;-31
2022/05/17 05:55:11;;;;;;;0.10;0.10;;;;;;;22.71;46.70;101700.66;5142863;27;20043;-32
2022/05/17 05:57:42;;;;;;;0.10;0.10;;;;;;;22.72;46.60;101700.38;5138024;27;20063;-29
2022/05/17 06:00:09;;;;;;;0.10;0.10;;;;;;;22.73;46.50;101701.22;5138940;27;20481;-31
2022/05/17 06:02:35;;;;;;;0.10;0.10;;;;;;;22.74;46.50;101702.88;5143858;27;20133;-31
2022/05/17 06:05:00;;;;;;;0.10;0.10;;;;;;;22.73;46.35;101709.53;5143497;27;20397;-33
2022/05/17 06:07:26;;;;;;;0.00;0.00;;;;;;;22.74;46.47;101708.41;5141932;27;20050;-31
2022/05/17 06:09:52;;;;;;;0.10;0.10;;;;;;;22.75;46.40;101710.06;5142506;27;20047;-32
2022/05/17 06:12:17;;;;;;;0.10;0.10;;;;;;;22.76;46.29;101717.31;5145660;27;20046;-32
2022/05/17 06:14:43;;;;;;;0.10;0.10;;;;;;;22.77;46.14;101713.41;5141305;27;20043;-29
2022/05/17 06:17:09;;;;;;;0.10;0.10;;;;;;;22.79;46.27;101716.72;5139933;27;20046;-31
2022/05/17 06:19:34;;;;;;;0.10;0.10;;;;;;;22.78;46.16;101710.34;5141508;27;20051;-33
2022/05/17 06:22:00;;;;;;;0.10;0.10;;;;;;;22.79;46.04;101714.75;5144268;27;20370;-33
2022/05/17 06:24:27;;;;;;;0.10;0.10;;;;;;;22.80;46.07;101715.63;5147070;27;20554;-32
2022/05/17 06:26:52;;;;;;;0.10;0.10;;;;;;;22.81;46.11;101708.13;5144940;27;20085;-32
2022/05/17 06:29:18;;;;;;;0.10;0.10;;;;;;;22.81;46.08;101708.94;5142125;27;20055;-31
2022/05/17 06:31:44;;;;;;;0.10;0.10;;;;;;;22.83;46.02;101715.03;5142172;27;20035;-32
2022/05/17 06:34:10;;;;;;;0.10;0.10;;;;;;;22.83;45.93;101712.25;5144714;27;20046;-31
2022/05/17 06:36:35;;;;;;;0.10;0.10;;;;;;;22.85;45.90;101709.22;5141311;27;20112;-31
2022/05/17 06:39:21;;;;;;;0.10;0.10;;;;;;;22.88;45.84;101722.50;5126219;27;20055;-33
2022/05/17 06:41:47;;;;;;;0.10;0.10;;;;;;;22.88;45.91;101714.16;5140442;27;20498;-33
2022/05/17 06:44:13;;;;;;;0.10;0.10;;;;;;;22.88;45.76;101709.44;5144603;27;20381;-31
2022/05/17 06:46:39;;;;;;;0.10;0.10;;;;;;;22.90;45.87;101717.53;5137246;27;20089;-31
2022/05/17 06:49:04;;;;;;;0.10;0.10;;;;;;;22.90;45.73;101718.34;5144652;27;20480;-31
2022/05/17 06:51:31;;;;;;;0.10;0.10;;;;;;;22.91;45.79;101720.00;5143585;27;20043;-32
2022/05/17 06:53:56;;;;;;;0.10;0.10;;;;;;;22.91;45.81;101725.56;5139028;27;20163;-32
2022/05/17 06:56:22;;;;;;;0.10;0.10;;;;;;;22.92;45.83;101729.16;5138850;27;20046;-31
2022/05/17 06:58:48;;;;;;;0.10;0.10;;;;;;;22.93;45.80;101733.63;5141150;27;20046;-31
2022/05/17 07:01:13;;;;;;;0.10;0.10;;;;;;;22.92;45.66;101731.94;5143358;27;20058;-32
2022/05/17 07:03:39;;;;;;;0.10;0.10;;;;;;;22.92;45.71;101735.56;5142930;27;20333;-30
2022/05/17 07:06:05;;;;;;;0.10;0.10;;;;;;;22.86;46.23;101731.13;5142593;27;20458;-31
2022/05/17 07:08:30;;;;;;;0.10;0.10;;;;;;;22.93;46.02;101733.63;5134121;27;20058;-31
2022/05/17 07:13:41;;;;;;;0.10;0.10;;;;;;;22.95;45.88;101735.00;5124455;27;20445;-31
2022/05/17 07:16:07;;;;;;;0.10;0.10;;;;;;;22.95;46.04;101732.22;5141189;27;20057;-32
2022/05/17 07:18:34;;;;;;;0.10;0.10;;;;;;;22.96;45.90;101733.03;5138923;27;20493;-32
2022/05/17 07:20:59;;;;;;;0.10;0.10;;;;;;;22.95;45.90;101737.75;5144962;27;20127;-32
2022/05/17 07:23:25;;;;;;;0.15;0.15;;;;;;;22.95;45.82;101745.28;5138244;27;20039;-31
2022/05/17 07:25:52;;;;;;;0.10;0.10;;;;;;;22.95;45.56;101736.94;5122130;27;20084;-30
2022/05/17 07:28:19;;;;;;;0.10;0.10;;;;;;;22.95;45.77;101743.31;5121254;27;20287;-31
2022/05/17 07:30:46;;;;;;;0.10;0.10;;;;;;;22.95;45.88;101753.59;5143876;27;20501;-32
2022/05/17 07:33:12;;;;;;;0.10;0.10;;;;;;;22.94;45.76;101746.41;5117265;27;20430;-31
2022/05/17 07:35:38;;;;;;;0.10;0.10;;;;;;;22.94;45.76;101755.56;5134202;27;20042;-32
2022/05/17 07:38:06;;;;;;;0.10;0.10;;;;;;;22.95;45.77;101742.50;5139242;27;20374;-32
2022/05/17 07:40:32;;;;;;;0.10;0.10;;;;;;;22.94;45.80;101743.63;5139963;27;20110;-30
2022/05/17 07:42:58;;;;;;;0.10;0.10;;;;;;;22.93;45.78;101739.19;5137488;27;20129;-31
2022/05/17 07:45:24;;;;;;;0.10;0.10;;;;;;;22.94;45.68;101746.41;5132977;27;20043;-31
2022/05/17 07:47:50;;;;;;;0.10;0.10;;;;;;;22.93;45.87;101753.91;5126517;27;20089;-30
2022/05/17 07:50:15;;;;;;;0.10;0.10;;;;;;;22.93;45.79;101758.63;5134556;27;20259;-33
2022/05/17 07:52:41;;;;;;;0.10;0.10;;;;;;;22.93;45.77;101755.84;5139605;27;20153;-31
2022/05/17 07:55:08;;;;;;;0.10;0.10;;;;;;;22.94;45.83;101754.72;5136381;27;20386;-31
2022/05/17 07:57:33;;;;;;;0.10;0.10;;;;;;;22.92;45.81;101754.16;5133668;27;20134;-30
2022/05/17 07:59:59;;;;;;;0.10;0.10;;;;;;;22.92;45.77;101756.94;5134384;27;20485;-31
2022/05/17 08:02:25;;;;;;;0.10;0.10;;;;;;;22.92;45.50;101759.72;5138496;27;20050;-32
2022/05/17 08:04:50;;;;;;;0.10;0.10;;;;;;;22.92;45.78;101756.94;5137654;27;20051;-32
2022/05/17 08:07:16;;;;;;;0.10;0.10;;;;;;;22.91;45.80;101764.44;5134000;27;20054;-29
2022/05/17 08:09:42;;;;;;;0.10;0.10;;;;;;;22.92;45.72;101757.78;5136810;27;20051;-30
2022/05/17 08:12:10;;;;;;;0.10;0.10;;;;;;;22.92;45.88;101752.22;5136916;27;20608;-32
2022/05/17 08:14:38;;;;;;;0.10;0.10;;;;;;;22.91;45.81;101752.50;5138617;27;20521;-32
2022/05/17 08:17:04;;;;;;;0.10;0.10;;;;;;;22.91;45.72;101756.13;5138281;27;20175;-31
2022/05/17 08:19:30;;;;;;;0.10;0.10;;;;;;;22.91;45.82;101758.06;5127800;27;20165;-32
2022/05/17 08:21:56;;;;;;;0.10;0.10;;;;;;;22.91;45.79;101767.22;5130788;27;21069;-33
2022/05/17 08:24:21;;;;;;;0.10;0.10;;;;;;;22.91;45.71;101764.44;5133268;27;20358;-32
2022/05/17 08:29:32;;;;;;;0.10;0.10;;;;;;;22.90;45.76;101759.19;5118697;27;20328;-31
2022/05/17 08:34:44;;;;;;;0.10;0.10;;;;;;;22.90;45.78;101765.56;5107783;27;20145;-32
2022/05/17 08:37:09;;;;;;;0.10;0.10;;;;;;;22.90;45.80;101773.91;5134570;27;20050;-31
2022/05/17 08:39:35;;;;;;;0.10;0.10;;;;;;;22.91;45.94;101777.50;5134656;27;20201;-35
2022/05/17 08:42:08;;;;;;;0.32;0.28;;;;;;;22.91;45.85;101775.56;5136115;27;20106;-38
2022/05/17 08:44:46;;;;;;;0.10;0.10;;;;;;;22.90;45.72;101773.91;5118557;27;20078;-32
2022/05/17 08:47:17;;;;;;;0.10;0.10;;;;;;;22.90;45.70;101775.88;5136907;27;20542;-31
2022/05/17 08:50:07;;;;;;;0.10;0.10;;;;;;;22.89;45.79;101768.63;5108258;27;20489;-31
2022/05/17 08:52:36;;;;;;;0.10;0.10;;;;;;;22.88;45.75;101769.72;5133384;27;20466;-33
2022/05/17 08:55:17;;;;;;;0.00;0.00;;;;;;;22.89;45.79;101774.19;5137878;27;20169;-35
2022/05/17 08:57:47;;;;;;;0.10;0.10;;;;;;;22.90;45.72;101778.63;5135665;27;20035;-31
2022/05/17 09:00:40;;;;;;;0.10;0.10;;;;;;;22.87;45.72;101768.88;5136218;27;20130;-29
2022/05/17 09:03:28;;;;;;;0.10;0.10;;;;;;;22.88;45.72;101770.53;5121584;27;20335;-30
2022/05/17 09:05:59;;;;;;;0.10;0.10;;;;;;;22.87;45.66;101771.66;5138287;27;20074;-32
2022/05/17 09:08:34;;;;;;;0.10;0.10;;;;;;;22.87;45.70;101763.34;5136838;27;20528;-32
2022/05/17 09:11:08;;;;;;;0.10;0.10;;;;;;;22.89;45.79;101771.41;5116376;27;20717;-32
2022/05/17 09:16:18;;;;;;;0.00;0.00;;;;;;;22.88;45.77;101772.50;5151184;27;20206;-30
2022/05/17 09:18:45;;;;;;;0.10;0.10;;;;;;;22.87;45.70;101765.28;5135273;27;20058;-28
2022/05/17 09:21:33;;;;;;;0.10;0.10;;;;;;;22.88;45.66;101764.97;5140661;27;20169;-28
2022/05/17 09:24:03;;;;;;;0.10;0.10;;;;;;;22.86;45.68;101764.44;5123360;27;20447;-29
2022/05/17 09:26:29;;;;;;;0.10;0.10;;;;;;;22.87;45.77;101766.09;5124176;27;20134;-31
2022/05/17 09:29:04;;;;;;;0.10;0.10;;;;;;;22.86;45.69;101761.69;5131623;27;20146;-30
2022/05/17 09:31:34;;;;;;;0.10;0.10;;;;;;;22.86;45.73;101758.06;5133302;27;20174;-31
2022/05/17 09:34:02;;;;;;;0.10;0.10;;;;;;;22.86;45.56;101755.28;5127934;27;20051;-31
2022/05/17 09:36:33;;;;;;;0.10;0.10;;;;;;;22.86;45.63;101758.06;5109863;27;20273;-33
2022/05/17 09:38:59;;;;;;;0.10;0.10;;;;;;;22.85;45.58;101757.25;5134381;27;20411;-33
2022/05/17 09:41:31;;;;;;;0.10;0.10;;;;;;;22.85;45.63;101767.53;5130998;27;20142;-32
2022/05/17 09:44:14;;;;;;;0.10;0.10;;;;;;;22.85;45.62;101765.56;5137529;27;20074;-31
2022/05/17 09:46:44;;;;;;;0.10;0.10;;;;;;;22.86;45.59;101766.41;5135531;27;20202;-31
2022/05/17 09:54:54;;;;;;;0.10;0.10;;;;;;;22.83;45.69;101751.13;5117905;27;20649;-29
2022/05/17 09:57:25;;;;;;;0.10;0.10;;;;;;;22.82;45.57;101746.69;5094157;28;20048;-28
2022/05/17 09:59:54;;;;;;;0.10;0.10;;;;;;;22.82;45.75;101746.69;5075322;28;20102;-28
2022/05/17 10:02:34;;;;;;;0.08;0.08;;;;;;;22.82;45.55;101743.91;5095314;28;20146;-32
2022/05/17 10:05:02;;;;;;;0.10;0.10;;;;;;;22.82;45.53;101741.16;5097799;28;20138;-31
2022/05/17 10:07:29;;;;;;;0.10;0.10;;;;;;;22.63;48.03;101748.47;5094399;28;20133;-42
2022/05/17 10:09:55;;;;;;;0.00;0.00;;;;;;;22.64;47.84;101750.97;5098855;28;20574;-31
2022/05/17 10:12:28;;;;;;;0.10;0.10;;;;;;;22.76;47.32;101747.84;5098018;28;20044;-31
2022/05/17 10:14:58;;;;;;;0.10;0.10;;;;;;;22.79;46.96;101742.53;5098264;28;20470;-30
2022/05/17 10:17:30;;;;;;;0.10;0.10;;;;;;;22.57;48.90;101746.81;5062240;28;20071;-33
2022/05/17 10:19:59;;;;;;;0.10;0.10;;;;;;;22.44;49.11;101735.19;5075644;28;20466;-33
2022/05/17 10:23:05;;;;;;;0.10;0.10;;;;;;;22.45;49.24;101734.13;5094132;28;20086;-34
2022/05/17 10:25:42;;;;;;;0.10;0.10;;;;;;;22.39;49.25;101734.41;5074371;28;20105;-30
2022/05/17 10:30:55;;;;;;;0.10;0.10;;;;;;;22.82;47.85;101721.72;5168928;27;20663;-31
2022/05/17 10:33:28;;;;;;;0.10;0.10;;;;;;;22.86;47.54;101714.47;5135932;27;20589;-32
2022/05/17 10:36:01;;;;;;;0.10;0.10;;;;;;;22.90;47.26;101715.59;5137845;27;20568;-31
2022/05/17 10:38:34;;;;;;;0.10;0.10;;;;;;;22.92;46.93;101707.78;5136846;27;20075;-32
2022/05/17 10:41:05;;;;;;;0.10;0.10;;;;;;;22.95;46.83;101715.53;5131928;27;20134;-31
2022/05/17 10:43:35;;;;;;;0.00;0.00;;;;;;;22.97;46.80;101715.25;5131678;27;20487;-32
2022/05/17 10:46:10;;;;;;;0.10;0.10;;;;;;;22.98;47.21;101708.59;5134202;27;20191;-32
2022/05/17 10:51:56;;;;;;;0.10;0.10;;;;;;;23.06;46.61;101710.75;5154592;27;20726;-29
2022/05/17 10:54:48;;;;;;;0.10;0.10;;;;;;;23.05;46.57;101703.53;5112318;27;20150;-29
2022/05/17 10:57:40;;;;;;;0.10;0.10;;;;;;;23.04;46.54;101702.69;5124369;27;21375;-30
2022/05/17 11:00:18;;;;;;;0.00;0.00;;;;;;;23.07;46.34;101704.09;5126862;27;20474;-31
2022/05/17 11:03:14;;;;;;;0.00;0.00;;;;;;;23.07;46.32;101701.31;5124537;27;20142;-32
2022/05/17 11:06:19;;;;;;;0.10;0.10;;;;;;;23.09;46.35;101695.44;5118324;27;20061;-34
2022/05/17 11:09:15;;;;;;;0.10;0.10;;;;;;;23.09;46.31;101698.22;5104862;27;20122;-34
2022/05/17 11:12:10;;;;;;;0.10;0.10;;;;;;;23.10;46.21;101691.53;5122754;27;20137;-32
2022/05/17 11:14:42;;;;;;;0.10;0.10;;;;;;;23.08;46.94;101691.03;5132429;27;20138;-30
2022/05/17 11:17:50;;;;;;;0.10;0.10;;;;;;;23.14;46.61;101693.44;5132794;27;20130;-32
2022/05/17 11:20:40;;;;;;;0.10;0.10;;;;;;;23.14;46.49;101690.69;5119964;27;20089;-33
2022/05/17 11:23:31;;;;;;;0.10;0.10;;;;;;;23.16;46.29;101690.41;5124908;27;20433;-31
2022/05/17 11:26:24;;;;;;;0.10;0.10;;;;;;;23.17;46.23;101687.31;5123126;27;20576;-32
2022/05/17 11:29:14;;;;;;;0.10;0.10;;;;;;;23.18;46.34;101688.97;5122437;27;20156;-32
2022/05/17 11:31:54;;;;;;;0.10;0.10;;;;;;;23.18;46.10;101683.41;5112999;27;20139;-33
2022/05/17 11:37:09;;;;;;;0.10;0.10;;;;;;;23.21;46.10;101677.28;5148024;27;20720;-33
2022/05/17 11:43:40;;;;;;;0.10;0.10;;;;;;;23.23;46.03;101677.84;5138956;27;20153;-30
2022/05/17 11:45:44;;;;;;;0.10;0.10;;;;;;;23.25;45.79;101680.31;5119737;27;20335;-31
2022/05/17 11:48:15;;;;;;;0.10;0.10;;;;;;;23.25;46.00;101672.81;5099115;27;20443;-30
2022/05/17 11:50:45;;;;;;;0.10;0.10;;;;;;;23.27;45.89;101675.28;5118023;27;20545;-31
2022/05/17 11:56:28;;;;;;;0.10;0.10;;;;;;;23.29;45.73;101665.56;5149984;27;20208;-32
2022/05/17 12:01:50;;;;;;;0.10;0.10;;;;;;;23.31;46.31;101659.69;5150040;27;20222;-32
2022/05/17 12:10:16;;;;;;;0.10;0.10;;;;;;;23.35;45.92;101657.16;5148882;27;20206;-29
2022/05/17 12:12:58;;;;;;;0.10;0.10;;;;;;;23.36;45.96;101664.38;5132484;27;20615;-31
2022/05/17 12:15:45;;;;;;;0.10;0.10;;;;;;;23.37;45.89;101652.16;5135837;27;20146;-31